CMA CGM Balzac — DIHN — position and weather

sailwx.info

Track history (hours):
 
Tides and Currents Weather Stations Pressure Air Temp Water Temp Dewpoint Dewpoint Depression Visibility Wind Speed Wind Dir Waves Ship Positions

CMA CGM Balzac

Last reported at 2015-Jul-24 11:33 UTC. Time now 2015-Jul-28 01:22 UTC.
Position N 03°34' E 100°11'.

Length 300.3 m; beam 40.3 m; draft 14 m.

Type: Ship. MMSI: 211378810.

Date/timePositionNaut miles runAvg speedWind from/ knotsBaromVisibWave heightAir tempDewpointWater temp
2015-Jul-24 11:33N 03°34' E 100°11'4020.1
2015-Jul-24 09:33N 03°07' E 100°41'4120.4
2015-Jul-24 07:34N 02°43' E 101°14'16919.9
2015-Jul-23 23:03N 01°12' E 103°36'4 8.9
2015-Jul-23 22:33N 01°13' E 103°40'6 6.2
2015-Jul-23 21:33N 01°17' E 103°45'0 0.0
2015-Jul-23 20:33N 01°17' E 103°45'0 0.0
2015-Jul-23 19:33N 01°17' E 103°45'0 0.0
2015-Jul-23 18:33N 01°17' E 103°45'0 0.0
2015-Jul-23 17:33N 01°17' E 103°45'0 0.0
2015-Jul-23 16:33N 01°17' E 103°45'0 0.0
2015-Jul-23 15:33N 01°17' E 103°45'0 0.0
2015-Jul-23 14:33N 01°17' E 103°45'0 0.0
2015-Jul-23 13:33N 01°17' E 103°45'0 0.0
2015-Jul-23 12:33N 01°17' E 103°45'0 0.0
2015-Jul-23 11:33N 01°17' E 103°45'0 0.0
2015-Jul-23 10:33N 01°17' E 103°45'0 0.0
2015-Jul-23 09:33N 01°17' E 103°45'0 0.0
2015-Jul-23 08:33N 01°17' E 103°45'0 0.0
2015-Jul-23 07:33N 01°17' E 103°45'0 0.0
2015-Jul-23 06:33N 01°17' E 103°45'0 0.0
2015-Jul-23 05:33N 01°17' E 103°45'0 0.0
2015-Jul-23 04:33N 01°17' E 103°45'0 0.0
2015-Jul-23 03:33N 01°17' E 103°45'0 0.0
2015-Jul-23 02:33N 01°17' E 103°45'3 3.1
2015-Jul-23 01:33N 01°14' E 103°47'9 8.9
2015-Jul-23 00:33N 01°15' E 103°56'9 8.9
2015-Jul-22 23:33N 01°16' E 104°05'12 3.1
2015-Jul-22 19:33N 01°18' E 104°17'  
2015-Jul-19 20:24N 21°47' E 114°19'1820.6
2015-Jul-19 19:32N 22°05' E 114°21'1812.6
2015-Jul-19 18:08N 22°16' E 114°06'17 1.4
2015-Jul-19 05:32N 22°28' E 113°53'0 0.0
2015-Jul-19 04:32N 22°28' E 113°53'6 1.4
2015-Jul-19 00:30N 22°22' E 113°54'1111.7
2015-Jul-18 23:34N 22°19' E 114°06'2 1.6
2015-Jul-18 22:34N 22°21' E 114°07'0 0.0
2015-Jul-18 21:34N 22°21' E 114°07'0 0.0
2015-Jul-18 20:33N 22°21' E 114°07'0 0.0
2015-Jul-18 19:33N 22°21' E 114°07'0 0.0
2015-Jul-18 18:33N 22°21' E 114°07'0 0.0
2015-Jul-18 17:33N 22°21' E 114°07'0 0.0
2015-Jul-18 16:33N 22°21' E 114°07'0 0.0
2015-Jul-18 15:34N 22°21' E 114°07'0 0.0
2015-Jul-18 14:33N 22°21' E 114°07'0 0.0
2015-Jul-18 13:33N 22°21' E 114°07'0 0.0
2015-Jul-18 12:33N 22°21' E 114°07'0 0.0
2015-Jul-18 11:33N 22°21' E 114°07'3 2.7
2015-Jul-18 10:34N 22°18' E 114°06'1110.0
2015-Jul-18 09:30N 22°10' E 114°13'1313.5
2015-Jul-18 08:32N 22°10' E 114°27'16417.9
2015-Jul-17 23:23N 23°02' E 117°15'6421.5
2015-Jul-17 20:23N 23°41' E 118°11'1821.7
2015-Jul-17 19:33N 23°52' E 118°27'4421.5
2015-Jul-17 17:30N 24°19' E 119°05'4721.1
2015-Jul-17 15:16N 24°48' E 119°46'35020.5
2015-Jul-16 22:14N 29°51' E 123°03'3219.0
2015-Jul-16 20:32N 30°22' E 122°55'2218.0
2015-Jul-16 19:20N 30°31' E 122°32'1316.8
2015-Jul-16 18:32N 30°33' E 122°16'1312.8
2015-Jul-16 17:33N 30°38' E 122°03'0 0.3
2015-Jul-16 16:33N 30°38' E 122°03'0 0.0
2015-Jul-16 15:33N 30°38' E 122°03'0 0.0
2015-Jul-16 14:32N 30°38' E 122°03'0 0.0
2015-Jul-16 13:28N 30°38' E 122°03'0 0.0
2015-Jul-16 12:31N 30°38' E 122°03'0 0.0
2015-Jul-16 11:33N 30°38' E 122°03'0 0.0
2015-Jul-16 10:33N 30°38' E 122°03'0 0.0
2015-Jul-16 09:32N 30°38' E 122°03'0 0.0
2015-Jul-16 08:33N 30°38' E 122°03'3 3.1
2015-Jul-16 07:28N 30°36' E 122°06'16 8.4
2015-Jul-16 05:31N 30°32' E 122°25'4 4.4
2015-Jul-16 04:33N 30°31' E 122°29'9 7.9
2015-Jul-16 03:28N 30°29' E 122°39'3 3.8
2015-Jul-16 02:33N 30°27' E 122°42'0 0.0
2015-Jul-16 01:33N 30°27' E 122°42'0 0.0
2015-Jul-16 00:33N 30°27' E 122°42'0 0.1
2015-Jul-15 23:28N 30°27' E 122°42'0 0.2
2015-Jul-15 22:29N 30°27' E 122°42'0 0.1
2015-Jul-15 21:33N 30°27' E 122°42'0 0.1
2015-Jul-15 20:33N 30°27' E 122°43'0 0.1
2015-Jul-15 19:33N 30°27' E 122°43'0 0.1
2015-Jul-15 18:32N 30°27' E 122°43'0 0.1
2015-Jul-15 17:33N 30°27' E 122°43'0 0.2
2015-Jul-15 16:24N 30°27' E 122°42'0 0.2
2015-Jul-15 15:33N 30°27' E 122°42'0 0.0
2015-Jul-15 14:33N 30°27' E 122°42'0 0.0
2015-Jul-15 13:33N 30°27' E 122°42'0 0.1
2015-Jul-15 11:23N 30°27' E 122°42'0 0.1
2015-Jul-15 09:30N 30°27' E 122°42'0 0.1
2015-Jul-15 08:33N 30°27' E 122°42'0 0.1
2015-Jul-15 07:33N 30°27' E 122°43'0 0.1
2015-Jul-15 06:26N 30°27' E 122°43'0 0.0
2015-Jul-15 05:33N 30°27' E 122°43'0 0.1
2015-Jul-15 04:33N 30°27' E 122°43'0 0.2
2015-Jul-15 03:33N 30°27' E 122°42'0 0.1
2015-Jul-15 02:33N 30°27' E 122°42'0 0.1
2015-Jul-15 01:32N 30°27' E 122°42'0 0.0
2015-Jul-15 00:32N 30°27' E 122°42'0 0.1
2015-Jul-14 23:33N 30°27' E 122°42'0 0.1
2015-Jul-14 22:33N 30°27' E 122°42'0 0.2
2015-Jul-14 21:33N 30°27' E 122°42'0 0.1
2015-Jul-14 20:11N 30°27' E 122°43'0 0.0
2015-Jul-14 19:27N 30°27' E 122°43'0 0.1
2015-Jul-14 18:33N 30°27' E 122°43'0 0.0
2015-Jul-14 17:20N 30°27' E 122°43'0 0.1
2015-Jul-14 16:33N 30°27' E 122°43'0 0.2
2015-Jul-14 15:33N 30°27' E 122°42'0 0.1
2015-Jul-14 13:15N 30°27' E 122°42'0 0.1
2015-Jul-14 12:33N 30°27' E 122°42'0 0.1
2015-Jul-14 11:33N 30°27' E 122°42'  
Track history (hours):
 
Tides and Currents Weather Stations Pressure Air Temp Water Temp Dewpoint Dewpoint Depression Visibility Wind Speed Wind Dir Waves Ship Positions

CMA CGM Balzac

Last reported at 2015-Jul-24 11:33 UTC. Time now 2015-Jul-28 01:22 UTC.
Position N 03°34' E 100°11'.

Length 300.3 m; beam 40.3 m; draft 14 m.

Type: Ship. MMSI: 211378810.

Date/timePositionNaut miles runAvg speedWind from/ knotsBaromVisibWave heightAir tempDewpointWater temp
2015-Jul-24 11:33N 03°34' E 100°11'4020.1
2015-Jul-24 09:33N 03°07' E 100°41'4120.4
2015-Jul-24 07:34N 02°43' E 101°14'16919.9
2015-Jul-23 23:03N 01°12' E 103°36'4 8.9
2015-Jul-23 22:33N 01°13' E 103°40'6 6.2
2015-Jul-23 21:33N 01°17' E 103°45'0 0.0
2015-Jul-23 20:33N 01°17' E 103°45'0 0.0
2015-Jul-23 19:33N 01°17' E 103°45'0 0.0
2015-Jul-23 18:33N 01°17' E 103°45'0 0.0
2015-Jul-23 17:33N 01°17' E 103°45'0 0.0
2015-Jul-23 16:33N 01°17' E 103°45'0 0.0
2015-Jul-23 15:33N 01°17' E 103°45'0 0.0
2015-Jul-23 14:33N 01°17' E 103°45'0 0.0
2015-Jul-23 13:33N 01°17' E 103°45'0 0.0
2015-Jul-23 12:33N 01°17' E 103°45'0 0.0
2015-Jul-23 11:33N 01°17' E 103°45'0 0.0
2015-Jul-23 10:33N 01°17' E 103°45'0 0.0
2015-Jul-23 09:33N 01°17' E 103°45'0 0.0
2015-Jul-23 08:33N 01°17' E 103°45'0 0.0
2015-Jul-23 07:33N 01°17' E 103°45'0 0.0
2015-Jul-23 06:33N 01°17' E 103°45'0 0.0
2015-Jul-23 05:33N 01°17' E 103°45'0 0.0
2015-Jul-23 04:33N 01°17' E 103°45'0 0.0
2015-Jul-23 03:33N 01°17' E 103°45'0 0.0
2015-Jul-23 02:33N 01°17' E 103°45'3 3.1
2015-Jul-23 01:33N 01°14' E 103°47'9 8.9
2015-Jul-23 00:33N 01°15' E 103°56'9 8.9
2015-Jul-22 23:33N 01°16' E 104°05'12 3.1
2015-Jul-22 19:33N 01°18' E 104°17'  
2015-Jul-19 20:24N 21°47' E 114°19'1820.6
2015-Jul-19 19:32N 22°05' E 114°21'1812.6
2015-Jul-19 18:08N 22°16' E 114°06'17 1.4
2015-Jul-19 05:32N 22°28' E 113°53'0 0.0
2015-Jul-19 04:32N 22°28' E 113°53'6 1.4
2015-Jul-19 00:30N 22°22' E 113°54'1111.7
2015-Jul-18 23:34N 22°19' E 114°06'2 1.6
2015-Jul-18 22:34N 22°21' E 114°07'0 0.0
2015-Jul-18 21:34N 22°21' E 114°07'0 0.0
2015-Jul-18 20:33N 22°21' E 114°07'0 0.0
2015-Jul-18 19:33N 22°21' E 114°07'0 0.0
2015-Jul-18 18:33N 22°21' E 114°07'0 0.0
2015-Jul-18 17:33N 22°21' E 114°07'0 0.0
2015-Jul-18 16:33N 22°21' E 114°07'0 0.0
2015-Jul-18 15:34N 22°21' E 114°07'0 0.0
2015-Jul-18 14:33N 22°21' E 114°07'0 0.0
2015-Jul-18 13:33N 22°21' E 114°07'0 0.0
2015-Jul-18 12:33N 22°21' E 114°07'0 0.0
2015-Jul-18 11:33N 22°21' E 114°07'3 2.7
2015-Jul-18 10:34N 22°18' E 114°06'1110.0
2015-Jul-18 09:30N 22°10' E 114°13'1313.5
2015-Jul-18 08:32N 22°10' E 114°27'16417.9
2015-Jul-17 23:23N 23°02' E 117°15'6421.5
2015-Jul-17 20:23N 23°41' E 118°11'1821.7
2015-Jul-17 19:33N 23°52' E 118°27'4421.5
2015-Jul-17 17:30N 24°19' E 119°05'4721.1
2015-Jul-17 15:16N 24°48' E 119°46'35020.5
2015-Jul-16 22:14N 29°51' E 123°03'3219.0
2015-Jul-16 20:32N 30°22' E 122°55'2218.0
2015-Jul-16 19:20N 30°31' E 122°32'1316.8
2015-Jul-16 18:32N 30°33' E 122°16'1312.8
2015-Jul-16 17:33N 30°38' E 122°03'0 0.3
2015-Jul-16 16:33N 30°38' E 122°03'0 0.0
2015-Jul-16 15:33N 30°38' E 122°03'0 0.0
2015-Jul-16 14:32N 30°38' E 122°03'0 0.0
2015-Jul-16 13:28N 30°38' E 122°03'0 0.0
2015-Jul-16 12:31N 30°38' E 122°03'0 0.0
2015-Jul-16 11:33N 30°38' E 122°03'0 0.0
2015-Jul-16 10:33N 30°38' E 122°03'0 0.0
2015-Jul-16 09:32N 30°38' E 122°03'0 0.0
2015-Jul-16 08:33N 30°38' E 122°03'3 3.1
2015-Jul-16 07:28N 30°36' E 122°06'16 8.4
2015-Jul-16 05:31N 30°32' E 122°25'4 4.4
2015-Jul-16 04:33N 30°31' E 122°29'9 7.9
2015-Jul-16 03:28N 30°29' E 122°39'3 3.8
2015-Jul-16 02:33N 30°27' E 122°42'0 0.0
2015-Jul-16 01:33N 30°27' E 122°42'0 0.0
2015-Jul-16 00:33N 30°27' E 122°42'0 0.1
2015-Jul-15 23:28N 30°27' E 122°42'0 0.2
2015-Jul-15 22:29N 30°27' E 122°42'0 0.1
2015-Jul-15 21:33N 30°27' E 122°42'0 0.1
2015-Jul-15 20:33N 30°27' E 122°43'0 0.1
2015-Jul-15 19:33N 30°27' E 122°43'0 0.1
2015-Jul-15 18:32N 30°27' E 122°43'0 0.1
2015-Jul-15 17:33N 30°27' E 122°43'0 0.2
2015-Jul-15 16:24N 30°27' E 122°42'0 0.2
2015-Jul-15 15:33N 30°27' E 122°42'0 0.0
2015-Jul-15 14:33N 30°27' E 122°42'0 0.0
2015-Jul-15 13:33N 30°27' E 122°42'0 0.1
2015-Jul-15 11:23N 30°27' E 122°42'0 0.1
2015-Jul-15 09:30N 30°27' E 122°42'0 0.1
2015-Jul-15 08:33N 30°27' E 122°42'0 0.1
2015-Jul-15 07:33N 30°27' E 122°43'0 0.1
2015-Jul-15 06:26N 30°27' E 122°43'0 0.0
2015-Jul-15 05:33N 30°27' E 122°43'0 0.1
2015-Jul-15 04:33N 30°27' E 122°43'0 0.2
2015-Jul-15 03:33N 30°27' E 122°42'0 0.1
2015-Jul-15 02:33N 30°27' E 122°42'0 0.1
2015-Jul-15 01:32N 30°27' E 122°42'0 0.0
2015-Jul-15 00:32N 30°27' E 122°42'0 0.1
2015-Jul-14 23:33N 30°27' E 122°42'0 0.1
2015-Jul-14 22:33N 30°27' E 122°42'0 0.2
2015-Jul-14 21:33N 30°27' E 122°42'0 0.1
2015-Jul-14 20:11N 30°27' E 122°43'0 0.0
2015-Jul-14 19:27N 30°27' E 122°43'0 0.1
2015-Jul-14 18:33N 30°27' E 122°43'0 0.0
2015-Jul-14 17:20N 30°27' E 122°43'0 0.1
2015-Jul-14 16:33N 30°27' E 122°43'0 0.2
2015-Jul-14 15:33N 30°27' E 122°42'0 0.1
2015-Jul-14 13:15N 30°27' E 122°42'0 0.1
2015-Jul-14 12:33N 30°27' E 122°42'0 0.1
2015-Jul-14 11:33N 30°27' E 122°42'  

Dump ship's entire track history